createdAt,value
2018-10-07T00:00:49.663Z,23.65
2018-10-07T00:03:20.193Z,23.69
2018-10-07T00:05:50.412Z,23.70
2018-10-07T00:08:20.943Z,23.69
2018-10-07T00:10:51.675Z,23.70
2018-10-07T00:13:22.204Z,23.69
2018-10-07T00:15:52.940Z,23.71
2018-10-07T00:18:23.373Z,23.69
2018-10-07T00:20:53.694Z,23.70
2018-10-07T00:23:24.024Z,23.70
2018-10-07T00:25:54.444Z,23.71
2018-10-07T00:28:24.899Z,23.71
2018-10-07T00:30:55.612Z,23.72
2018-10-07T00:33:25.838Z,23.72
2018-10-07T00:35:56.057Z,23.72
2018-10-07T00:38:26.584Z,23.72
2018-10-07T00:40:56.812Z,23.72
2018-10-07T00:43:27.237Z,23.72
2018-10-07T00:45:57.872Z,23.72
2018-10-07T00:48:28.192Z,23.72
2018-10-07T00:50:58.622Z,23.68
2018-10-07T00:53:28.747Z,23.64
2018-10-07T00:55:59.373Z,23.72
2018-10-07T00:58:29.909Z,23.71
2018-10-07T01:01:00.230Z,23.72
2018-10-07T01:03:30.657Z,23.71
2018-10-07T01:06:00.990Z,23.71
2018-10-07T01:08:31.825Z,23.70
2018-10-07T01:11:02.250Z,23.71
2018-10-07T01:13:32.367Z,23.70
2018-10-07T01:16:02.901Z,23.70
2018-10-07T01:18:33.123Z,23.69
2018-10-07T01:21:03.352Z,23.70
2018-10-07T01:23:33.469Z,23.69
2018-10-07T01:26:03.789Z,23.69
2018-10-07T01:28:34.119Z,23.69
2018-10-07T01:31:04.851Z,23.70
2018-10-07T01:33:34.973Z,23.69
2018-10-07T01:36:05.810Z,23.70
2018-10-07T01:45:21.955Z,23.64
2018-10-07T01:47:52.688Z,23.61
2018-10-07T01:50:23.112Z,23.61
2018-10-07T01:52:53.541Z,23.62
2018-10-07T01:55:23.880Z,23.62
2018-10-07T01:57:54.197Z,23.62
2018-10-07T02:00:24.521Z,23.62
2018-10-07T02:02:54.951Z,23.62
2018-10-07T02:05:25.074Z,23.63
2018-10-07T02:07:55.288Z,23.63
2018-10-07T02:10:26.029Z,23.63
2018-10-07T02:12:56.253Z,23.62
2018-10-07T02:15:26.566Z,23.64
2018-10-07T02:17:57.010Z,23.64
2018-10-07T02:20:28.248Z,23.63
2018-10-07T02:22:58.878Z,23.63
2018-10-07T02:25:29.309Z,23.63
2018-10-07T02:27:59.752Z,23.63
2018-10-07T02:30:30.064Z,23.63
2018-10-07T02:33:00.798Z,23.63
2018-10-07T02:35:31.235Z,23.63
2018-10-07T02:38:01.660Z,23.62
2018-10-07T02:40:31.981Z,23.63
2018-10-07T02:43:02.198Z,23.63
2018-10-07T02:45:32.630Z,23.63
2018-10-07T02:48:02.853Z,23.63
2018-10-07T02:50:33.275Z,23.63
2018-10-07T02:53:03.806Z,23.64
2018-10-07T02:55:34.650Z,23.63
2018-10-07T02:58:06.510Z,23.63
2018-10-07T03:00:36.828Z,23.64
2018-10-07T03:03:07.577Z,23.63
2018-10-07T03:05:37.998Z,23.64
2018-10-07T03:08:08.522Z,23.64
2018-10-07T03:10:38.951Z,23.64
2018-10-07T03:13:09.385Z,23.65
2018-10-07T03:15:39.708Z,23.61
2018-10-07T03:18:10.541Z,23.66
2018-10-07T03:20:40.663Z,23.66
2018-10-07T03:23:11.399Z,23.66
2018-10-07T03:25:42.243Z,23.62
2018-10-07T03:28:14.002Z,23.63
2018-10-07T03:30:44.117Z,23.67
2018-10-07T03:33:14.958Z,23.66
2018-10-07T03:35:45.985Z,23.67
2018-10-07T03:38:16.632Z,23.66
2018-10-07T03:40:46.751Z,23.62
2018-10-07T03:43:17.624Z,23.66
2018-10-07T03:45:48.223Z,23.66
2018-10-07T03:48:19.263Z,23.66
2018-10-07T03:50:49.796Z,23.66
2018-10-07T03:53:20.220Z,23.65
2018-10-07T03:55:50.651Z,23.65
2018-10-07T03:58:20.978Z,23.61
2018-10-07T04:00:51.296Z,23.65
2018-10-07T04:03:21.729Z,23.64
2018-10-07T04:05:52.362Z,23.64
2018-10-07T04:08:22.786Z,23.64
2018-10-07T04:10:53.316Z,23.64
2018-10-07T04:13:23.953Z,23.64
2018-10-07T04:15:54.385Z,23.64
2018-10-07T04:18:24.912Z,23.64
2018-10-07T04:20:55.129Z,23.63
2018-10-07T04:23:25.574Z,23.63
2018-10-07T04:25:55.887Z,23.59
2018-10-07T04:28:26.626Z,23.62
2018-10-07T04:30:57.251Z,23.61
2018-10-07T04:33:27.482Z,23.61
2018-10-07T04:35:57.902Z,23.61
2018-10-07T04:38:28.335Z,23.60
2018-10-07T04:40:58.973Z,23.61
2018-10-07T04:43:29.597Z,23.61
2018-10-07T04:45:59.927Z,23.60
2018-10-07T04:48:30.554Z,23.61
2018-10-07T04:51:00.984Z,23.61
2018-10-07T04:53:31.497Z,23.60
2018-10-07T04:56:02.961Z,23.61
2018-10-07T04:58:33.800Z,23.61
2018-10-07T05:01:05.453Z,23.61
2018-10-07T05:03:36.298Z,23.62
2018-10-07T05:06:08.257Z,23.53
2018-10-07T05:08:40.326Z,23.61
2018-10-07T05:11:11.166Z,23.61
2018-10-07T05:13:55.204Z,23.61
2018-10-07T05:16:35.662Z,23.61
2018-10-07T05:19:06.403Z,23.55
2018-10-07T05:21:37.042Z,23.58
2018-10-07T05:24:07.877Z,23.60
2018-10-07T05:26:38.200Z,23.61
2018-10-07T05:29:08.426Z,23.61
2018-10-07T05:31:38.460Z,23.61
2018-10-07T05:34:09.186Z,23.56
2018-10-07T05:36:40.321Z,23.58
2018-10-07T05:39:13.107Z,23.62
2018-10-07T05:41:44.041Z,23.63
2018-10-07T05:44:14.676Z,23.63
2018-10-07T05:46:45.312Z,23.63
2018-10-07T05:49:16.145Z,23.63
2018-10-07T05:51:46.578Z,23.59
2018-10-07T05:54:17.022Z,23.61
2018-10-07T05:56:47.878Z,23.63
2018-10-07T05:59:18.983Z,23.63
2018-10-07T06:01:50.238Z,23.63
2018-10-07T06:04:25.506Z,23.64
2018-10-07T06:06:57.741Z,23.64
2018-10-07T06:09:32.164Z,23.63
2018-10-07T06:12:03.408Z,23.64
2018-10-07T06:14:44.095Z,23.65
2018-10-07T06:17:15.018Z,23.63
2018-10-07T06:19:45.967Z,23.63
2018-10-07T06:22:16.982Z,23.63
2018-10-07T06:24:47.738Z,23.62
2018-10-07T06:27:18.881Z,23.62
2018-10-07T06:29:50.598Z,23.62
2018-10-07T06:32:21.176Z,23.58
2018-10-07T06:34:51.806Z,23.61
2018-10-07T06:37:22.540Z,23.62
2018-10-07T06:39:53.534Z,23.63
2018-10-07T06:42:24.418Z,23.62
2018-10-07T06:44:55.777Z,23.61
2018-10-07T06:47:26.821Z,23.61
2018-10-07T06:49:57.650Z,23.61
2018-10-07T06:52:28.390Z,23.62
2018-10-07T06:54:59.523Z,23.61
2018-10-07T06:57:30.778Z,23.59
2018-10-07T07:00:02.256Z,23.60
2018-10-07T07:02:33.373Z,23.60
2018-10-07T07:05:04.202Z,23.60
2018-10-07T07:07:35.245Z,23.60
2018-10-07T07:10:06.286Z,23.59
2018-10-07T07:12:37.235Z,23.59
2018-10-07T07:15:08.367Z,23.60
2018-10-07T07:17:39.108Z,23.60
2018-10-07T07:20:10.198Z,23.60
2018-10-07T07:22:41.089Z,23.60
2018-10-07T07:25:11.829Z,23.59
2018-10-07T07:27:42.566Z,23.60
2018-10-07T07:30:13.503Z,23.61
2018-10-07T07:32:44.339Z,23.61
2018-10-07T07:35:15.176Z,23.60
2018-10-07T07:37:45.708Z,23.61
2018-10-07T07:40:16.749Z,23.61
2018-10-07T07:42:47.791Z,23.62
2018-10-07T07:45:18.526Z,23.62
2018-10-07T07:47:49.261Z,23.62
2018-10-07T07:50:19.686Z,23.62
2018-10-07T08:06:12.746Z,23.60
2018-10-07T08:08:43.184Z,23.59
2018-10-07T08:11:13.393Z,23.60
2018-10-07T08:13:43.710Z,23.61
2018-10-07T08:16:14.260Z,23.61
2018-10-07T08:18:44.883Z,23.62
2018-10-07T08:21:15.309Z,23.62
2018-10-07T08:23:45.981Z,23.63
2018-10-07T08:26:16.569Z,23.64
2018-10-07T08:28:47.101Z,23.65
2018-10-07T08:31:17.737Z,23.66
2018-10-07T08:33:48.060Z,23.66
2018-10-07T08:36:18.380Z,23.66
2018-10-07T08:38:48.918Z,23.65
2018-10-07T08:41:20.058Z,23.66
2018-10-07T08:43:50.797Z,23.67
2018-10-07T08:46:21.015Z,23.66
2018-10-07T08:48:51.747Z,23.67
2018-10-07T08:51:22.074Z,23.67
2018-10-07T08:53:52.202Z,23.67
2018-10-07T08:56:22.843Z,23.67
2018-10-07T08:58:53.568Z,23.68
2018-10-07T09:01:23.787Z,23.68
2018-10-07T09:03:54.325Z,23.69
2018-10-07T09:06:24.852Z,23.70
2018-10-07T09:08:55.269Z,23.70
2018-10-07T09:11:25.601Z,23.72
2018-10-07T09:13:55.928Z,23.72
2018-10-07T09:16:26.257Z,23.72
2018-10-07T09:18:56.483Z,23.73
2018-10-07T09:21:27.084Z,23.74
2018-10-07T09:23:57.948Z,23.74
2018-10-07T09:26:28.380Z,23.75
2018-10-07T09:28:59.104Z,23.77
2018-10-07T09:31:29.329Z,23.78
2018-10-07T09:33:59.760Z,23.80
2018-10-07T09:36:30.291Z,23.80
2018-10-07T09:39:00.718Z,23.80
2018-10-07T09:41:30.736Z,23.79
2018-10-07T09:44:01.259Z,23.80
2018-10-07T09:46:31.799Z,23.81
2018-10-07T09:49:02.427Z,23.80
2018-10-07T09:51:32.647Z,23.81
2018-10-07T09:54:04.099Z,23.80
2018-10-07T09:56:34.531Z,23.81
2018-10-07T09:59:05.266Z,23.81
2018-10-07T10:01:35.490Z,23.81
2018-10-07T10:04:06.353Z,23.82
2018-10-07T10:06:37.063Z,23.81
2018-10-07T10:09:10.457Z,23.82
2018-10-07T10:11:41.808Z,23.82
2018-10-07T10:14:12.167Z,23.83
2018-10-07T10:16:48.200Z,23.82
2018-10-07T10:20:26.501Z,23.83
2018-10-07T10:23:07.608Z,23.83
2018-10-07T10:26:18.459Z,23.81
2018-10-07T10:29:27.395Z,23.81
2018-10-07T10:32:22.301Z,23.80
2018-10-07T10:35:01.428Z,23.80
2018-10-07T10:37:42.300Z,23.79
2018-10-07T10:40:25.123Z,23.80
2018-10-07T10:43:01.587Z,23.80
2018-10-07T10:45:37.133Z,23.79
2018-10-07T10:48:20.157Z,23.81
2018-10-07T10:50:59.804Z,23.80
2018-10-07T10:53:37.198Z,23.81
2018-10-07T10:56:18.073Z,23.81
2018-10-07T10:58:56.792Z,23.81
2018-10-07T11:01:38.390Z,23.80
2018-10-07T11:04:21.589Z,23.81
2018-10-07T11:07:25.718Z,23.81
2018-10-07T11:10:04.151Z,23.81
2018-10-07T11:12:43.988Z,23.80
2018-10-07T11:15:50.113Z,23.80
2018-10-07T11:18:41.062Z,23.79
2018-10-07T11:21:35.252Z,23.80
2018-10-07T11:24:12.749Z,23.80
2018-10-07T11:26:56.685Z,23.80
2018-10-07T11:29:37.462Z,23.81
2018-10-07T11:34:25.259Z,23.81
2018-10-07T11:37:07.109Z,23.82
2018-10-07T11:40:21.564Z,23.82
2018-10-07T11:43:10.835Z,23.81
2018-10-07T11:46:06.246Z,23.82
2018-10-07T11:48:47.225Z,23.83
2018-10-07T11:52:24.730Z,23.84
2018-10-07T11:55:02.220Z,23.84
2018-10-07T11:57:32.650Z,23.84
2018-10-07T12:00:04.028Z,23.85
2018-10-07T12:02:34.643Z,23.86
2018-10-07T12:05:05.163Z,23.87
2018-10-07T12:07:36.196Z,23.88
2018-10-07T12:10:07.387Z,23.88
2018-10-07T12:12:38.169Z,23.89
2018-10-07T12:15:08.507Z,23.89
2018-10-07T12:17:38.937Z,23.90
2018-10-07T12:20:09.258Z,23.90
2018-10-07T12:22:39.998Z,23.91
2018-10-07T12:25:11.179Z,23.92
2018-10-07T12:27:41.772Z,23.93
2018-10-07T12:30:12.284Z,23.94
2018-10-07T12:32:42.833Z,23.94
2018-10-07T12:37:42.966Z,23.97
2018-10-07T12:40:14.012Z,23.98
2018-10-07T12:42:44.448Z,23.98
2018-10-07T12:45:15.376Z,23.99
2018-10-07T12:47:46.215Z,24.00
2018-10-07T12:50:16.545Z,24.00
2018-10-07T12:52:47.693Z,24.01
2018-10-07T12:55:17.917Z,24.01
2018-10-07T12:57:48.419Z,24.02
2018-10-07T13:00:19.280Z,24.02
2018-10-07T13:02:49.922Z,24.01
2018-10-07T13:05:20.541Z,24.02
2018-10-07T13:07:51.068Z,24.03
2018-10-07T13:10:21.401Z,24.03
2018-10-07T13:12:52.250Z,24.04
2018-10-07T13:15:22.674Z,24.05
2018-10-07T13:17:53.296Z,24.05
2018-10-07T13:20:23.927Z,24.06
2018-10-07T13:22:54.539Z,24.07
2018-10-07T13:25:25.301Z,24.07
2018-10-07T13:27:55.614Z,24.07
2018-10-07T13:30:26.353Z,24.07
2018-10-07T13:32:56.887Z,24.08
2018-10-07T13:35:27.227Z,24.08
2018-10-07T13:37:57.227Z,24.08
2018-10-07T13:40:27.778Z,24.08
2018-10-07T13:42:58.407Z,24.07
2018-10-07T13:45:29.123Z,24.07
2018-10-07T13:47:59.553Z,24.07
2018-10-07T13:50:30.490Z,24.06
2018-10-07T13:53:00.820Z,24.06
2018-10-07T13:55:31.352Z,24.05
2018-10-07T13:58:01.878Z,24.05
2018-10-07T14:00:32.628Z,24.04
2018-10-07T14:03:03.554Z,24.04
2018-10-07T14:05:33.990Z,24.02
2018-10-07T14:08:04.920Z,24.02
2018-10-07T14:10:35.365Z,24.02
2018-10-07T14:13:05.868Z,24.02
2018-10-07T14:15:36.309Z,24.01
2018-10-07T14:18:07.964Z,24.01
2018-10-07T14:20:38.598Z,24.01
2018-10-07T14:23:09.026Z,24.00
2018-10-07T14:25:39.450Z,24.00
2018-10-07T14:28:09.969Z,23.99
2018-10-07T14:30:40.515Z,23.99
2018-10-07T14:33:10.937Z,23.98
2018-10-07T14:35:41.568Z,23.98
2018-10-07T14:38:12.616Z,23.98
2018-10-07T14:40:43.245Z,23.96
2018-10-07T14:43:13.775Z,23.95
2018-10-07T14:45:44.093Z,23.94
2018-10-07T14:48:14.533Z,23.94
2018-10-07T14:50:45.069Z,23.93
2018-10-07T14:53:15.286Z,23.92
2018-10-07T14:55:45.816Z,23.92
2018-10-07T14:58:16.554Z,23.92
2018-10-07T15:00:46.977Z,23.91
2018-10-07T15:03:17.195Z,23.90
2018-10-07T15:05:47.523Z,23.89
2018-10-07T15:08:18.249Z,23.90
2018-10-07T15:10:49.401Z,23.89
2018-10-07T15:13:19.932Z,23.88
2018-10-07T15:15:50.977Z,23.89
2018-10-07T15:18:21.781Z,23.87
2018-10-07T15:20:52.854Z,23.88
2018-10-07T15:23:23.184Z,23.87
2018-10-07T15:25:53.711Z,23.86
2018-10-07T15:28:24.035Z,23.86
2018-10-07T15:30:54.976Z,23.86
2018-10-07T15:33:26.533Z,23.85
2018-10-07T15:35:57.366Z,23.85
2018-10-07T15:38:27.899Z,23.85
2018-10-07T15:40:58.119Z,23.84
2018-10-07T15:43:28.548Z,23.84
2018-10-07T15:45:58.872Z,23.83
2018-10-07T15:48:29.302Z,23.83
2018-10-07T15:50:59.737Z,23.84
2018-10-07T15:53:31.700Z,23.84
2018-10-07T15:56:03.048Z,23.83
2018-10-07T15:58:33.578Z,23.83
2018-10-07T16:01:04.314Z,23.84
2018-10-07T16:03:34.843Z,23.83
2018-10-07T16:06:06.585Z,23.83
2018-10-07T16:08:36.836Z,23.82
2018-10-07T16:11:07.660Z,23.82
2018-10-07T16:13:38.903Z,23.81
2018-10-07T16:16:09.228Z,23.81
2018-10-07T16:18:39.623Z,23.81
2018-10-07T16:21:10.495Z,23.80
2018-10-07T16:23:41.624Z,23.80
2018-10-07T16:26:12.317Z,23.79
2018-10-07T16:28:42.906Z,23.80
2018-10-07T16:31:13.643Z,23.78
2018-10-07T16:33:44.068Z,23.78
2018-10-07T16:36:14.498Z,23.77
2018-10-07T16:38:45.130Z,23.78
2018-10-07T16:41:15.862Z,23.77
2018-10-07T16:43:46.087Z,23.77
2018-10-07T16:46:16.304Z,23.77
2018-10-07T16:48:46.848Z,23.76
2018-10-07T16:51:17.775Z,23.75
2018-10-07T16:53:48.514Z,23.75
2018-10-07T16:56:19.249Z,23.74
2018-10-07T16:58:50.286Z,23.73
2018-10-07T17:01:20.817Z,23.73
2018-10-07T17:03:51.080Z,23.73
2018-10-07T17:06:21.779Z,23.72
2018-10-07T17:08:52.978Z,23.71
2018-10-07T17:11:23.466Z,23.71
2018-10-07T17:13:53.783Z,23.71
2018-10-07T17:16:24.724Z,23.71
2018-10-07T17:18:55.159Z,23.65
2018-10-07T17:21:26.206Z,23.69
2018-10-07T17:23:56.517Z,23.67
2018-10-07T17:26:27.159Z,23.67
2018-10-07T17:28:57.573Z,23.68
2018-10-07T17:31:28.724Z,23.67
2018-10-07T17:33:59.360Z,23.66
2018-10-07T17:36:29.790Z,23.67
2018-10-07T17:39:00.006Z,23.67
2018-10-07T17:41:30.741Z,23.63
2018-10-07T17:44:00.854Z,23.66
2018-10-07T17:46:31.699Z,23.66
2018-10-07T17:49:02.282Z,23.66
2018-10-07T17:51:32.649Z,23.66
2018-10-07T17:54:03.695Z,23.66
2018-10-07T17:56:34.228Z,23.67
2018-10-07T17:59:04.447Z,23.65
2018-10-07T18:01:34.829Z,23.65
2018-10-07T18:04:05.201Z,23.66
2018-10-07T18:06:36.141Z,23.67
2018-10-07T18:09:09.909Z,23.66
2018-10-07T18:11:40.586Z,23.65
2018-10-07T18:14:11.415Z,23.65
2018-10-07T18:16:42.053Z,23.65
2018-10-07T18:19:12.477Z,23.65
2018-10-07T18:21:43.235Z,23.65
2018-10-07T18:24:13.859Z,23.66
2018-10-07T18:26:44.301Z,23.66
2018-10-07T18:29:14.704Z,23.66
2018-10-07T18:31:45.236Z,23.66
2018-10-07T18:34:15.903Z,23.66
2018-10-07T18:36:46.499Z,23.68
2018-10-07T18:39:17.034Z,23.67
2018-10-07T18:41:47.661Z,23.66
2018-10-07T18:44:18.087Z,23.65
2018-10-07T18:46:48.826Z,23.66
2018-10-07T18:49:19.455Z,23.66
2018-10-07T18:51:50.104Z,23.66
2018-10-07T18:54:20.820Z,23.65
2018-10-07T18:56:52.589Z,23.66
2018-10-07T18:59:23.323Z,23.66
2018-10-07T19:01:53.849Z,23.64
2018-10-07T19:04:24.174Z,23.64
2018-10-07T19:06:55.739Z,23.65
2018-10-07T19:09:26.152Z,23.65
2018-10-07T19:11:56.380Z,23.64
2018-10-07T19:14:26.815Z,23.64
2018-10-07T19:16:57.683Z,23.64
2018-10-07T19:19:28.475Z,23.64
2018-10-07T19:21:59.009Z,23.63
2018-10-07T19:24:30.053Z,23.63
2018-10-07T19:27:00.992Z,23.63
2018-10-07T19:29:31.952Z,23.63
2018-10-07T19:32:02.374Z,23.62
2018-10-07T19:34:32.820Z,23.61
2018-10-07T19:37:04.124Z,23.61
2018-10-07T19:39:34.672Z,23.61
2018-10-07T19:42:06.022Z,23.62
2018-10-07T19:44:36.375Z,23.60
2018-10-07T19:47:07.079Z,23.61
2018-10-07T19:49:37.710Z,23.60
2018-10-07T19:52:08.487Z,23.60
2018-10-07T20:11:22.041Z,23.62
2018-10-07T20:13:52.534Z,23.63
2018-10-07T20:16:23.161Z,23.66
2018-10-07T20:18:53.793Z,23.68
2018-10-07T20:21:24.419Z,23.70
2018-10-07T20:23:55.822Z,23.71
2018-10-07T20:26:26.176Z,23.74
2018-10-07T20:28:57.045Z,23.75
2018-10-07T20:31:27.774Z,23.77
2018-10-07T20:33:58.323Z,23.78
2018-10-07T20:36:29.067Z,23.80
2018-10-07T20:38:59.393Z,23.82
2018-10-07T20:41:30.231Z,23.82
2018-10-07T20:44:00.938Z,23.82
2018-10-07T20:46:31.977Z,23.83
2018-10-07T20:49:03.532Z,23.83
2018-10-07T20:51:33.963Z,23.84
2018-10-07T20:54:04.496Z,23.84
2018-10-07T20:56:35.125Z,23.84
2018-10-07T20:59:05.565Z,23.84
2018-10-07T21:01:35.981Z,23.85
2018-10-07T21:04:06.098Z,23.85
2018-10-07T21:06:36.628Z,23.86
2018-10-07T21:09:11.253Z,23.86
2018-10-07T21:11:41.788Z,23.85
2018-10-07T21:14:12.825Z,23.86
2018-10-07T21:16:43.450Z,23.85
2018-10-07T21:19:14.192Z,23.85
2018-10-07T21:21:45.473Z,23.85
2018-10-07T21:24:16.123Z,23.86
2018-10-07T21:26:47.424Z,23.87
2018-10-07T21:29:18.051Z,23.87
2018-10-07T21:31:48.529Z,23.87
2018-10-07T21:34:19.126Z,23.88
2018-10-07T21:36:49.647Z,23.87
2018-10-07T21:39:20.179Z,23.88
2018-10-07T21:41:50.861Z,23.88
2018-10-07T21:44:21.135Z,23.88
2018-10-07T21:46:51.682Z,23.87
2018-10-07T21:49:22.398Z,23.87
2018-10-07T21:51:52.731Z,23.87
2018-10-07T21:54:22.849Z,23.88
2018-10-07T21:56:54.192Z,23.86
2018-10-07T21:59:24.710Z,23.86
2018-10-07T22:01:55.152Z,23.85
2018-10-07T22:04:27.118Z,23.85
2018-10-07T22:06:57.858Z,23.85
2018-10-07T22:09:28.382Z,23.84
2018-10-07T22:11:59.019Z,23.84
2018-10-07T22:14:29.340Z,23.85
2018-10-07T22:16:59.865Z,23.83
2018-10-07T22:19:30.704Z,23.81
2018-10-07T22:22:01.340Z,23.81
2018-10-07T22:24:31.969Z,23.80
2018-10-07T22:27:03.013Z,23.79
2018-10-07T22:29:34.263Z,23.78
2018-10-07T22:32:04.902Z,23.78
2018-10-07T22:34:35.430Z,23.77
2018-10-07T22:37:05.947Z,23.77
2018-10-07T22:39:36.072Z,23.76
2018-10-07T22:42:06.295Z,23.76
2018-10-07T22:44:36.522Z,23.76
2018-10-07T22:47:06.991Z,23.76
2018-10-07T22:49:37.169Z,23.73
2018-10-07T22:52:07.495Z,23.74
2018-10-07T22:54:37.617Z,23.74
2018-10-07T22:57:08.247Z,23.73
2018-10-07T22:59:38.586Z,23.73
2018-10-07T23:02:09.098Z,23.72
2018-10-07T23:04:39.116Z,23.72
2018-10-07T23:07:10.112Z,23.72
2018-10-07T23:09:40.287Z,23.71
2018-10-07T23:12:11.231Z,23.72
2018-10-07T23:14:41.454Z,23.71
2018-10-07T23:17:12.170Z,23.72
2018-10-07T23:19:42.407Z,23.71
2018-10-07T23:22:12.727Z,23.71
2018-10-07T23:24:42.950Z,23.71
2018-10-07T23:27:13.589Z,23.71
2018-10-07T23:29:44.118Z,23.71
2018-10-07T23:32:14.342Z,22.96
2018-10-07T23:34:44.565Z,23.71
2018-10-07T23:37:14.911Z,23.71
2018-10-07T23:39:45.005Z,23.71
2018-10-07T23:42:15.543Z,23.70
2018-10-07T23:44:46.174Z,23.71
2018-10-07T23:47:16.387Z,23.71
2018-10-07T23:49:46.406Z,23.70
2018-10-07T23:52:16.635Z,23.69
2018-10-07T23:54:47.265Z,23.70
2018-10-07T23:57:17.376Z,23.69
2018-10-07T23:59:48.122Z,23.69
